Terminal Aerodrome Forecast
Issued by NWS Quad Cities IA IL

Home | Current Version | Previous Version | Text Only | Print | Product List | Glossary On
Versions: 1 2 3 4 5 6 7 8 9 10 11 12 13 14 15 16 17 18 19 20 21
000
FTUS43 KDVN 241212 CCA
TAFDBQ
TAF COR
KDBQ 241212Z 2412/2512 20009KT P6SM SCT020 BKN090
      TEMPO 2412/2413 5SM BR SCT006
     FM241500 21012KT P6SM SCT030 BKN120
     FM241800 24011KT P6SM BKN035
     FM242100 29010KT P6SM SCT040
     FM250000 32005KT P6SM SCT250=

USA.gov is the U.S. government's official web portal to all federal, state and local government web resources and services.